• pl
  • eng

Awiacja
Kliknij na pogrubioną czerwoną nazwę, aby odkodować depeszę. 05:31 24.01.2018
  • WIND
  • SIGNIFICANT EURO
  • SIGNIFICANT
  • SIGMET
  • AIRMET
  • TAF FC
  • TAF FT
  • METAR GG30
  • METAR GG00


METAR EPBY 240430Z 18010KT 5000 -RA BR FEW007 BKN042 01/M01 Q1019 =

METAR EPGD 240430Z 19015KT 4000 BR OVC005 M01/M01 Q1016 R11/190095 =

METAR EPKK 240430Z 04003KT 3000 BR BKN046 M03/M04 Q1026 =

METAR EPKT 240430Z 16005KT 3900 BR NSC M02/M03 Q1024 =

METAR EPLB 240430Z 17005KT 8000 FEW007 OVC032 M05/M06 Q1028 =

METAR EPLL 240430Z 12007KT 3500 BR FEW004 M03/M04 Q1023 =

METAR EPMO 240430Z 16008KT 6000 BKN030 M04/M05 Q1023 =

METAR EPPO 240430Z 21010KT 8000 SCT012 BKN030 02/01 Q1019 R10/290095
=

METAR EPRA 240430Z NIL=

METAR EPRZ 240430Z 10007KT 6000 OVC035 M06/M07 Q1028 R27/81//95 =

METAR EPSC 240430Z 17007KT 150V210 4500 BR BKN002 OVC003 04/03 Q1015
R13/72//95 =

METAR EPSY 240430Z NIL=

METAR EPWA 240430Z 16008KT 9999 BKN026 M04/M05 Q1024 NOSIG=

METAR EPWR 240430Z 19005KT 9999 SCT042 04/01 Q1022 =

METAR EPZG 240430Z 19010KT 3000 RA BR BKN010 OVC016 04/04 Q1020 =
 METAR EPGD
Lokalizacja:EPGD Gdańsk
Czas:04:30 UTC
Średni kierunek wiatru:190 °
Średnia prędkość wiatru:15 węzłów
Widzialność:4000 metrów
Zjawisko:zamglenie
Pierwsza warstwa chmur:8/8, wysokość podstawy 500 FT
Temperatura powietrza:-1 °C
Temperatura punktu rosy:-1 °C
Ciśnienie QNH:1016 hPa
Stan drogi startowej:
Wskaźnik drogi:11
Rodzaj pokrycia drogi:wilgotna
Rozległość zanieczyszczenia drogi:51% do 100% drogi startowej zanieczyszczone (pokryte)
Głębokość pokrycia drogi:mniej niż 1 mm
Współczynnik sczepności / hamowanie:hamowanie dobre
Awiacja.imgw.pl jest pogodowym serwisem informacyjnym
Instytutu Meteorologii i Gospodarki Wodnej Państwowego Instytutu Badawczego.
Copyright IMGW PIB 2009-2011© Wszelkie prawa zastrzeżone.